Time;durP1;ratioP1;P1;durP2;ratioP2;P2;SDS_P1;SDS_P2;PMS_P1;PMS_P2;Temp;Humidity;BMP_temperature;BMP_pressure;BME280_temperature;BME280_humidity;BME280_pressure;Samples;Min_cycle;Max_cycle;Signal;HPM_P1;HPM_P2
2023/09/01 00:00:49;;;;;;;7.90;3.30;;;;;;;12.62;100.00;100203.47;218346;1288;143872;-87
2023/09/01 00:05:49;;;;;;;7.60;3.70;;;;;;;12.62;100.00;100203.24;219107;1287;96085;-86
2023/09/01 00:10:50;;;;;;;7.10;3.60;;;;;;;12.62;100.00;100210.83;218250;1287;141113;-88
2023/09/01 00:15:50;;;;;;;8.40;3.80;;;;;;;12.61;100.00;100206.64;218894;1288;138882;-90
2023/09/01 00:20:57;;;;;;;8.80;3.80;;;;;;;12.60;100.00;100206.08;218363;1287;141377;-87
2023/09/01 00:25:59;;;;;;;11.80;4.60;;;;;;;12.57;100.00;100208.99;218691;1286;139309;-89
2023/09/01 00:31:00;;;;;;;9.60;3.90;;;;;;;12.55;100.00;100203.41;218382;1288;142063;-88
2023/09/01 00:36:01;;;;;;;8.70;3.90;;;;;;;12.53;100.00;100206.01;218714;1287;138976;-89
2023/09/01 00:41:01;;;;;;;7.60;3.50;;;;;;;12.50;100.00;100204.44;218494;1287;141930;-89
2023/09/01 00:46:02;;;;;;;9.60;3.80;;;;;;;12.49;100.00;100202.94;218930;1286;140052;-88
2023/09/01 00:51:02;;;;;;;5.50;3.00;;;;;;;12.47;100.00;100201.35;218180;1287;141823;-86
2023/09/01 00:56:04;;;;;;;8.70;3.40;;;;;;;12.46;100.00;100203.01;218915;1287;139166;-88
2023/09/01 01:01:05;;;;;;;7.70;3.60;;;;;;;12.44;100.00;100205.15;218227;1288;141508;-87
2023/09/01 01:06:24;;;;;;;8.60;3.90;;;;;;;12.41;100.00;100208.21;218847;1287;139478;-87
2023/09/01 01:11:36;;;;;;;8.30;3.80;;;;;;;12.36;100.00;100201.35;218188;1286;141427;-89
2023/09/01 01:16:37;;;;;;;8.70;3.90;;;;;;;12.33;100.00;100200.40;218721;1287;139082;-87
2023/09/01 01:21:43;;;;;;;7.00;3.50;;;;;;;12.33;100.00;100201.05;218383;1285;141618;-88
2023/09/01 01:26:43;;;;;;;13.00;4.90;;;;;;;12.33;100.00;100211.21;218899;1286;139167;-89
2023/09/01 01:31:44;;;;;;;8.20;4.90;;;;;;;12.33;100.00;100206.23;218494;1286;141796;-87
2023/09/01 01:37:10;;;;;;;8.20;3.90;;;;;;;12.32;100.00;100206.80;218951;1287;139460;-89
2023/09/01 01:42:15;;;;;;;8.70;4.10;;;;;;;12.30;100.00;100204.84;218060;1289;141094;-86
2023/09/01 01:47:17;;;;;;;9.40;4.20;;;;;;;12.28;100.00;100210.82;218975;1287;107815;-87
2023/09/01 01:52:18;;;;;;;8.70;4.10;;;;;;;12.25;100.00;100212.07;218369;1287;141045;-89
2023/09/01 01:57:18;;;;;;;8.80;4.20;;;;;;;12.23;100.00;100212.94;218930;1286;139192;-87
2023/09/01 02:02:19;;;;;;;8.60;4.50;;;;;;;12.19;100.00;100214.75;218366;1288;210003;-87
2023/09/01 02:07:19;;;;;;;10.10;4.90;;;;;;;12.16;100.00;100220.10;218686;1288;139731;-87
2023/09/01 02:12:19;;;;;;;9.20;4.70;;;;;;;12.13;100.00;100221.20;218384;1286;141787;-87
2023/09/01 02:17:20;;;;;;;10.80;4.70;;;;;;;12.11;100.00;100226.40;218840;1286;96018;-88
2023/09/01 02:22:20;;;;;;;9.90;5.20;;;;;;;12.10;100.00;100229.23;218323;1288;207566;-88
2023/09/01 02:27:21;;;;;;;9.10;5.20;;;;;;;12.09;100.00;100230.58;218863;1286;139069;-89
2023/09/01 02:32:22;;;;;;;12.60;5.50;;;;;;;12.10;100.00;100235.70;218384;1286;141909;-89
2023/09/01 02:37:22;;;;;;;9.20;5.50;;;;;;;12.10;100.00;100237.13;218740;1289;141203;-88
2023/09/01 02:42:23;;;;;;;11.20;5.10;;;;;;;12.10;100.00;100238.08;218373;1286;141251;-88
2023/09/01 02:47:24;;;;;;;13.50;5.10;;;;;;;12.11;100.00;100245.95;219021;1286;96043;-87
2023/09/01 02:52:25;;;;;;;11.40;4.60;;;;;;;12.12;100.00;100248.16;218132;1286;141711;-87
2023/09/01 02:57:26;;;;;;;8.10;4.60;;;;;;;12.11;100.00;100245.17;218885;1288;139123;-87
2023/09/01 03:02:27;;;;;;;9.30;5.00;;;;;;;12.10;100.00;100252.17;218151;1289;141049;-88
2023/09/01 03:07:28;;;;;;;9.10;4.30;;;;;;;12.09;100.00;100250.20;218727;1288;139518;-89
2023/09/01 03:12:29;;;;;;;11.20;4.50;;;;;;;12.08;100.00;100244.99;218204;1288;140693;-87
2023/09/01 03:17:29;;;;;;;8.00;4.40;;;;;;;12.07;100.00;100245.56;218812;1287;96570;-88
2023/09/01 03:22:30;;;;;;;9.00;4.40;;;;;;;12.05;100.00;100238.77;218231;1285;141357;-88
2023/09/01 03:27:30;;;;;;;6.70;3.70;;;;;;;12.00;100.00;100242.62;218670;1287;139035;-88
2023/09/01 03:32:30;;;;;;;11.50;4.60;;;;;;;11.97;100.00;100241.66;218384;1286;141248;-88
2023/09/01 03:37:32;;;;;;;8.70;4.30;;;;;;;11.93;100.00;100245.36;218665;1287;139397;-88
2023/09/01 03:42:32;;;;;;;7.40;4.10;;;;;;;11.86;100.00;100248.02;218248;1288;141382;-88
2023/09/01 03:47:33;;;;;;;9.10;3.90;;;;;;;11.80;100.00;100248.63;219115;1287;95958;-88
2023/09/01 03:52:33;;;;;;;7.70;4.30;;;;;;;11.72;100.00;100248.21;217989;1287;140985;-87
2023/09/01 03:57:34;;;;;;;10.20;4.80;;;;;;;11.65;100.00;100247.47;218907;1289;139069;-85
2023/09/01 04:02:34;;;;;;;8.60;4.60;;;;;;;11.58;100.00;100249.16;218331;1288;140770;-87
2023/09/01 04:07:35;;;;;;;8.90;4.60;;;;;;;11.51;100.00;100249.44;218656;1286;138990;-87
2023/09/01 04:12:35;;;;;;;8.00;4.20;;;;;;;11.48;100.00;100244.45;218053;1288;141315;-87
2023/09/01 04:17:36;;;;;;;10.50;4.70;;;;;;;11.44;100.00;100241.52;218855;1288;96288;-87
2023/09/01 04:22:36;;;;;;;10.10;4.60;;;;;;;11.39;100.00;100251.81;218089;1288;141330;-91
2023/09/01 04:27:37;;;;;;;8.10;4.30;;;;;;;11.33;100.00;100253.43;218851;1288;139501;-88
2023/09/01 04:32:37;;;;;;;7.80;4.70;;;;;;;11.28;100.00;100252.15;218267;1286;140894;-88
2023/09/01 04:37:38;;;;;;;10.60;5.10;;;;;;;11.22;100.00;100256.30;218870;1288;139604;-87
2023/09/01 04:42:38;;;;;;;11.20;5.30;;;;;;;11.19;100.00;100256.11;218239;1286;142091;-89
2023/09/01 04:47:39;;;;;;;10.70;4.80;;;;;;;11.17;100.00;100258.87;218860;1288;96067;-88
2023/09/01 04:52:39;;;;;;;8.50;4.90;;;;;;;11.14;100.00;100263.72;218064;1289;141150;-88
2023/09/01 04:57:40;;;;;;;9.40;4.60;;;;;;;11.14;100.00;100272.61;218543;1291;138879;-90
2023/09/01 05:02:40;;;;;;;9.40;4.80;;;;;;;11.15;100.00;100277.73;218276;1286;141317;-88
2023/09/01 05:07:40;;;;;;;10.90;5.60;;;;;;;11.16;100.00;100277.35;218602;1290;139654;-89
2023/09/01 05:12:41;;;;;;;10.20;4.90;;;;;;;11.18;100.00;100272.25;218239;1286;141509;-90
2023/09/01 05:17:41;;;;;;;7.90;4.90;;;;;;;11.22;100.00;100268.81;218930;1288;96262;-89
2023/09/01 05:22:42;;;;;;;10.40;5.60;;;;;;;11.29;100.00;100271.77;218216;1289;141149;-88
2023/09/01 05:27:44;;;;;;;10.10;5.80;;;;;;;11.38;100.00;100278.73;218836;1289;139596;-88
2023/09/01 05:32:45;;;;;;;10.40;4.90;;;;;;;11.48;100.00;100278.16;218374;1289;143533;-89
2023/09/01 05:37:48;;;;;;;11.40;6.00;;;;;;;11.58;100.00;100283.73;218823;1288;139734;-88
2023/09/01 05:42:48;;;;;;;11.80;5.30;;;;;;;11.69;100.00;100293.25;217979;1289;141934;-91
2023/09/01 05:47:56;;;;;;;9.50;5.00;;;;;;;11.80;100.00;100296.68;218884;1289;95856;-90
2023/09/01 05:52:57;;;;;;;11.00;5.40;;;;;;;11.91;100.00;100302.48;217655;1289;140808;-90
2023/09/01 05:57:57;;;;;;;9.30;4.50;;;;;;;12.03;100.00;100310.88;218550;1291;139312;-90
2023/09/01 06:02:58;;;;;;;9.90;4.90;;;;;;;12.11;100.00;100319.41;217976;1289;140971;-88
2023/09/01 06:07:59;;;;;;;10.40;5.20;;;;;;;12.15;100.00;100320.05;218416;1288;139282;-89
2023/09/01 06:12:59;;;;;;;9.20;4.80;;;;;;;12.22;100.00;100315.58;218167;1289;141829;-89
2023/09/01 06:18:00;;;;;;;9.40;4.80;;;;;;;12.32;100.00;100317.97;218757;1289;96039;-89
2023/09/01 06:23:02;;;;;;;8.90;5.00;;;;;;;12.40;100.00;100321.06;218306;1289;140892;-90
2023/09/01 06:28:03;;;;;;;9.20;4.50;;;;;;;12.48;100.00;100326.04;218702;1286;139108;-89
2023/09/01 06:33:13;;;;;;;9.20;4.80;;;;;;;12.57;100.00;100327.16;218057;1286;140892;-91
2023/09/01 06:38:25;;;;;;;9.20;4.90;;;;;;;12.67;100.00;100329.30;218532;1288;140476;-89
2023/09/01 06:43:37;;;;;;;10.20;4.70;;;;;;;12.78;100.00;100329.70;217886;1289;140047;-89
2023/09/01 06:48:52;;;;;;;10.20;4.90;;;;;;;12.90;100.00;100331.75;218536;1288;139468;-89
2023/09/01 06:53:52;;;;;;;10.60;5.70;;;;;;;13.01;100.00;100336.84;218080;1288;141163;-87
2023/09/01 06:58:53;;;;;;;14.10;4.80;;;;;;;13.12;100.00;100336.38;218596;1291;139964;-91
2023/09/01 07:03:54;;;;;;;10.70;5.00;;;;;;;13.25;100.00;100335.56;218192;1286;140692;-89
2023/09/01 07:08:55;;;;;;;9.90;4.50;;;;;;;13.38;100.00;100339.17;218613;1289;141448;-90
2023/09/01 07:13:55;;;;;;;8.10;4.40;;;;;;;13.55;100.00;100340.33;218259;1291;142245;-88
2023/09/01 07:19:08;;;;;;;9.20;4.80;;;;;;;13.70;100.00;100344.23;218804;1289;139569;-90
2023/09/01 07:24:11;;;;;;;9.40;4.60;;;;;;;13.87;100.00;100343.54;218030;1289;138744;-89
2023/09/01 07:29:12;;;;;;;11.60;4.30;;;;;;;14.03;100.00;100350.20;218188;1286;141563;-89
2023/09/01 07:34:12;;;;;;;9.40;3.70;;;;;;;14.18;100.00;100352.60;218614;1288;139802;-89
2023/09/01 07:39:12;;;;;;;7.80;3.60;;;;;;;14.36;100.00;100352.05;217900;1291;141217;-90
2023/09/01 07:44:17;;;;;;;13.80;3.80;;;;;;;14.55;100.00;100355.82;218690;1289;139081;-90
2023/09/01 07:49:18;;;;;;;8.10;3.40;;;;;;;14.75;100.00;100359.55;218163;1287;141427;-90
2023/09/01 07:54:25;;;;;;;5.70;3.10;;;;;;;14.92;100.00;100366.08;218591;1286;139349;-90
2023/09/01 07:59:26;;;;;;;10.30;3.80;;;;;;;15.15;100.00;100370.17;218056;1286;140751;-90
2023/09/01 08:04:26;;;;;;;7.40;2.80;;;;;;;15.35;100.00;100364.63;218706;1286;139234;-90
2023/09/01 08:09:27;;;;;;;9.40;2.90;;;;;;;15.55;100.00;100365.08;218377;1287;140949;-90
2023/09/01 08:14:28;;;;;;;6.90;3.10;;;;;;;15.78;100.00;100363.01;218661;1288;139154;-89
2023/09/01 08:19:28;;;;;;;11.70;3.40;;;;;;;16.00;100.00;100366.16;218155;1288;140842;-88
2023/09/01 08:24:32;;;;;;;8.40;2.80;;;;;;;16.23;100.00;100364.45;218750;1288;139180;-88
2023/09/01 08:29:33;;;;;;;5.40;2.10;;;;;;;16.51;100.00;100366.48;218169;1289;141205;-92
2023/09/01 08:34:36;;;;;;;8.40;2.40;;;;;;;16.91;100.00;100369.14;218501;1291;139610;-88
2023/09/01 08:39:37;;;;;;;6.10;2.40;;;;;;;17.36;100.00;100368.70;218016;1287;142236;-89
2023/09/01 08:44:40;;;;;;;9.10;2.20;;;;;;;17.75;99.03;100362.37;218545;1286;141640;-89
2023/09/01 08:49:41;;;;;;;6.60;2.20;;;;;;;18.12;98.09;100370.30;218261;1288;141531;-87
2023/09/01 08:54:41;;;;;;;10.20;1.80;;;;;;;18.51;96.73;100366.39;218674;1288;139379;-88
2023/09/01 08:59:43;;;;;;;6.60;1.80;;;;;;;18.98;94.29;100369.36;218510;1287;141047;-89
2023/09/01 09:04:46;;;;;;;5.90;1.60;;;;;;;19.52;92.49;100374.73;218696;1286;138838;-89
2023/09/01 09:09:55;;;;;;;6.30;1.90;;;;;;;20.00;86.45;100383.48;218256;1287;141440;-89
2023/09/01 09:14:56;;;;;;;49.40;3.60;;;;;;;20.32;85.86;100379.08;218660;1289;139008;-89
2023/09/01 09:19:59;;;;;;;7.10;1.90;;;;;;;20.69;83.87;100377.60;218334;1286;140851;-88
2023/09/01 09:24:59;;;;;;;6.00;2.20;;;;;;;20.84;80.69;100371.62;218850;1286;139103;-87
2023/09/01 09:30:01;;;;;;;6.90;1.50;;;;;;;20.94;78.71;100377.09;218482;1288;141241;-89
2023/09/01 09:35:15;;;;;;;7.00;2.10;;;;;;;20.87;77.98;100378.33;218844;1287;139720;-87
2023/09/01 09:40:16;;;;;;;6.90;1.70;;;;;;;21.04;79.10;100373.56;218091;1288;139964;-87
2023/09/01 09:45:34;;;;;;;6.60;2.00;;;;;;;21.28;78.47;100371.66;218877;1288;138644;-87
2023/09/01 09:50:35;;;;;;;7.10;2.20;;;;;;;21.49;77.08;100364.83;218257;1288;141280;-86
2023/09/01 09:55:45;;;;;;;7.40;1.70;;;;;;;21.77;77.44;100367.23;218753;1286;140177;-87
2023/09/01 10:00:53;;;;;;;4.50;1.50;;;;;;;22.09;70.42;100373.91;218297;1286;140555;-88
2023/09/01 10:05:55;;;;;;;4.60;1.50;;;;;;;22.04;67.40;100369.08;218952;1289;108566;-87
2023/09/01 10:10:57;;;;;;;7.20;1.10;;;;;;;22.09;68.12;100370.33;218177;1288;141970;-86
2023/09/01 10:15:59;;;;;;;7.80;1.40;;;;;;;22.49;67.20;100373.94;218891;1287;138470;-89
2023/09/01 10:21:00;;;;;;;4.80;1.40;;;;;;;22.79;66.18;100375.91;218156;1288;140816;-87
2023/09/01 10:26:14;;;;;;;4.00;1.50;;;;;;;22.97;65.05;100385.13;218927;1287;138762;-88
2023/09/01 10:31:20;;;;;;;3.80;1.10;;;;;;;23.24;63.17;100386.21;218235;1288;140767;-88
2023/09/01 10:36:20;;;;;;;5.80;2.50;;;;;;;23.30;61.44;100388.60;218686;1288;138546;-88
2023/09/01 10:41:50;;;;;;;7.10;1.60;;;;;;;23.30;61.08;100391.06;218310;1287;141799;-88
2023/09/01 10:46:51;;;;;;;6.30;1.40;;;;;;;23.30;62.75;100386.01;218794;1285;138174;-88
2023/09/01 10:52:11;;;;;;;4.30;1.50;;;;;;;23.21;59.34;100384.33;218520;1288;140435;-85
2023/09/01 10:57:13;;;;;;;3.00;1.30;;;;;;;22.94;60.20;100380.19;218511;1286;224162;-87
2023/09/01 11:02:18;;;;;;;2.60;1.00;;;;;;;23.16;61.55;100376.25;218347;1287;140243;-86
2023/09/01 11:07:18;;;;;;;4.40;1.50;;;;;;;23.30;61.57;100381.15;218578;1286;138343;-87
2023/09/01 11:12:28;;;;;;;5.10;1.50;;;;;;;23.27;60.08;100379.02;218099;1287;141205;-90
2023/09/01 11:17:49;;;;;;;8.40;1.40;;;;;;;23.20;58.44;100376.73;218617;1288;96006;-88
2023/09/01 11:22:50;;;;;;;7.10;1.80;;;;;;;23.17;59.65;100377.19;218223;1286;140384;-86
2023/09/01 11:27:51;;;;;;;4.70;1.30;;;;;;;23.30;57.95;100381.80;218677;1288;138547;-88
2023/09/01 11:32:52;;;;;;;5.60;1.50;;;;;;;23.15;57.43;100380.92;218157;1288;140177;-89
2023/09/01 11:37:52;;;;;;;3.50;1.30;;;;;;;23.22;57.42;100378.69;218790;1286;139598;-85
2023/09/01 11:42:53;;;;;;;6.60;1.90;;;;;;;23.13;57.98;100380.45;218154;1286;142271;-87
2023/09/01 11:47:54;;;;;;;7.70;1.40;;;;;;;23.38;57.14;100378.39;219000;1286;96134;-87
2023/09/01 11:52:56;;;;;;;2.40;1.10;;;;;;;23.43;56.71;100376.67;218305;1286;140965;-88
2023/09/01 11:57:57;;;;;;;5.90;1.50;;;;;;;23.56;57.52;100376.52;218725;1288;139095;-88
2023/09/01 12:02:58;;;;;;;4.60;1.60;;;;;;;23.73;56.69;100379.30;218366;1286;140820;-85
2023/09/01 12:08:01;;;;;;;5.30;1.40;;;;;;;23.92;56.12;100377.48;218913;1287;138738;-88
2023/09/01 12:13:07;;;;;;;4.80;1.40;;;;;;;23.72;55.25;100385.20;218036;1288;139866;-87
2023/09/01 12:18:29;;;;;;;3.90;1.40;;;;;;;23.55;55.28;100385.50;218982;1286;107065;-86
2023/09/01 12:23:31;;;;;;;2.90;1.30;;;;;;;23.55;54.24;100387.46;218411;1288;140177;-88
2023/09/01 12:28:34;;;;;;;5.40;1.50;;;;;;;23.47;56.20;100383.14;218873;1288;138222;-88
2023/09/01 12:33:36;;;;;;;6.10;1.80;;;;;;;23.47;55.13;100384.89;218324;1287;140754;-86
2023/09/01 12:38:36;;;;;;;3.00;1.60;;;;;;;23.49;55.92;100376.23;218692;1287;138916;-87
2023/09/01 12:43:37;;;;;;;49.40;3.60;;;;;;;23.51;54.18;100377.25;218461;1288;140002;-87
2023/09/01 12:48:40;;;;;;;2.90;1.10;;;;;;;23.38;54.61;100372.68;218923;1287;139020;-86
2023/09/01 12:53:41;;;;;;;12.20;2.20;;;;;;;23.36;55.16;100382.88;218509;1286;139638;-87
2023/09/01 12:58:41;;;;;;;15.40;2.10;;;;;;;23.47;57.49;100385.23;218914;1286;138166;-85
2023/09/01 13:03:42;;;;;;;7.60;1.60;;;;;;;23.50;55.66;100381.19;218383;1287;141191;-86
2023/09/01 13:08:42;;;;;;;5.10;1.40;;;;;;;23.49;54.80;100383.30;218902;1286;138146;-85
2023/09/01 13:13:43;;;;;;;5.10;1.80;;;;;;;23.40;52.81;100388.75;218386;1286;141562;-91
2023/09/01 13:18:43;;;;;;;6.00;1.60;;;;;;;23.30;52.63;100387.23;218756;1287;138328;-89
2023/09/01 13:23:44;;;;;;;5.30;1.50;;;;;;;23.30;53.84;100389.07;218265;1287;139492;-87
2023/09/01 13:28:44;;;;;;;3.80;1.40;;;;;;;23.29;53.52;100389.54;218704;1287;139168;-89
2023/09/01 13:33:45;;;;;;;3.90;1.50;;;;;;;23.18;53.42;100384.74;218116;1288;141168;-89
2023/09/01 13:38:46;;;;;;;5.00;1.60;;;;;;;23.12;54.06;100393.73;218715;1288;138268;-86
2023/09/01 13:43:46;;;;;;;2.90;1.40;;;;;;;23.00;54.05;100399.02;218340;1286;139750;-87
2023/09/01 13:48:57;;;;;;;3.90;1.60;;;;;;;22.97;54.57;100398.85;218699;1286;139344;-88
2023/09/01 13:53:58;;;;;;;5.10;1.50;;;;;;;22.96;53.66;100401.59;218194;1287;141576;-87
2023/09/01 13:58:58;;;;;;;4.60;1.80;;;;;;;22.82;53.82;100402.42;218875;1288;138570;-88
2023/09/01 14:03:58;;;;;;;3.20;1.40;;;;;;;22.66;53.45;100395.89;218098;1287;139676;-87
2023/09/01 14:09:00;;;;;;;4.80;1.80;;;;;;;22.50;54.18;100395.48;218833;1287;138351;-87
2023/09/01 14:14:00;;;;;;;4.40;2.00;;;;;;;22.51;56.21;100398.64;218298;1287;139622;-87
2023/09/01 14:19:02;;;;;;;4.90;1.90;;;;;;;22.55;56.99;100388.30;218784;1286;138613;-87
2023/09/01 14:24:03;;;;;;;5.10;2.00;;;;;;;22.48;55.00;100396.51;218443;1287;137717;-88
2023/09/01 14:29:04;;;;;;;5.60;2.20;;;;;;;22.37;55.60;100406.75;218382;1286;140219;-86
2023/09/01 14:34:04;;;;;;;5.80;2.10;;;;;;;22.18;54.53;100403.16;218643;1287;139338;-86
2023/09/01 14:39:06;;;;;;;5.10;2.10;;;;;;;22.04;55.55;100402.38;218266;1286;141153;-88
2023/09/01 14:44:07;;;;;;;6.60;2.30;;;;;;;21.95;55.57;100414.49;218779;1287;138165;-87
2023/09/01 14:49:07;;;;;;;5.60;1.80;;;;;;;21.81;56.06;100409.46;218022;1287;141185;-87
2023/09/01 14:54:08;;;;;;;4.90;2.10;;;;;;;21.68;56.26;100411.50;218823;1288;96649;-85
2023/09/01 14:59:08;;;;;;;6.10;2.30;;;;;;;21.66;57.34;100414.91;218086;1285;139358;-87
2023/09/01 15:04:09;;;;;;;7.40;2.30;;;;;;;21.65;56.86;100411.73;218757;1285;138073;-87
2023/09/01 15:09:09;;;;;;;5.00;2.00;;;;;;;21.59;57.21;100413.02;218255;1286;141645;-86
2023/09/01 15:14:10;;;;;;;5.30;2.10;;;;;;;21.52;58.35;100418.29;218862;1285;138911;-87
2023/09/01 15:19:12;;;;;;;4.40;1.50;;;;;;;21.42;58.29;100431.52;218300;1286;140422;-88
2023/09/01 15:24:13;;;;;;;6.10;2.00;;;;;;;21.30;58.32;100425.73;218856;1286;105338;-88
2023/09/01 15:29:13;;;;;;;8.00;3.00;;;;;;;21.20;59.87;100422.39;218082;1288;140449;-89
2023/09/01 15:34:16;;;;;;;6.10;1.90;;;;;;;21.06;59.49;100419.00;218830;1287;138959;-87
2023/09/01 15:39:18;;;;;;;9.10;2.10;;;;;;;20.97;60.79;100417.26;218305;1286;139943;-87
2023/09/01 15:44:18;;;;;;;9.20;2.40;;;;;;;20.88;61.86;100412.67;218748;1288;138204;-86
2023/09/01 15:49:19;;;;;;;8.70;2.30;;;;;;;20.85;63.23;100406.20;218263;1287;140105;-87
2023/09/01 15:54:19;;;;;;;6.40;2.70;;;;;;;20.79;62.79;100409.16;218887;1287;97031;-86
2023/09/01 15:59:20;;;;;;;5.10;2.10;;;;;;;20.76;63.58;100411.44;217950;1287;141308;-87
2023/09/01 16:04:20;;;;;;;6.00;2.10;;;;;;;20.71;64.38;100413.50;218715;1288;137997;-88
2023/09/01 16:09:21;;;;;;;4.60;2.10;;;;;;;20.69;66.07;100412.23;218262;1287;141256;-89
2023/09/01 16:14:21;;;;;;;5.20;1.90;;;;;;;20.64;67.18;100416.29;218919;1286;138265;-87
2023/09/01 16:19:22;;;;;;;4.90;2.10;;;;;;;20.56;67.71;100410.54;217968;1288;140427;-87
2023/09/01 16:24:25;;;;;;;6.50;2.30;;;;;;;20.50;68.15;100413.27;218654;1286;138869;-86
2023/09/01 16:29:26;;;;;;;3.50;2.10;;;;;;;20.37;68.88;100420.91;218062;1287;140703;-86
2023/09/01 16:34:26;;;;;;;4.90;2.10;;;;;;;20.28;70.25;100421.20;218415;1287;138309;-86
2023/09/01 16:39:27;;;;;;;5.60;2.30;;;;;;;20.22;71.16;100414.00;218170;1286;162479;-86
2023/09/01 16:44:29;;;;;;;5.30;2.20;;;;;;;20.13;71.56;100411.23;218684;1287;139853;-87
2023/09/01 16:49:30;;;;;;;5.50;2.10;;;;;;;20.04;71.88;100420.48;218132;1287;142539;-87
2023/09/01 16:54:31;;;;;;;5.30;2.40;;;;;;;19.92;72.29;100422.88;218916;1285;139662;-87
2023/09/01 16:59:31;;;;;;;7.20;2.10;;;;;;;19.78;73.37;100421.49;218407;1288;139820;-87
2023/09/01 17:04:32;;;;;;;7.40;2.30;;;;;;;19.66;74.07;100420.22;218814;1287;138190;-87
2023/09/01 17:09:33;;;;;;;5.20;2.70;;;;;;;19.50;74.00;100421.83;218288;1288;142303;-87
2023/09/01 17:14:33;;;;;;;7.50;2.80;;;;;;;19.37;75.28;100420.64;218605;1287;138736;-87
2023/09/01 17:19:34;;;;;;;10.20;2.90;;;;;;;19.25;76.18;100418.23;218257;1288;142183;-87
2023/09/01 17:24:34;;;;;;;5.60;2.50;;;;;;;19.15;76.46;100433.27;218829;1288;138417;-88
2023/09/01 17:29:35;;;;;;;6.00;2.40;;;;;;;18.97;77.11;100435.69;218374;1286;141369;-87
2023/09/01 17:34:36;;;;;;;8.30;2.70;;;;;;;18.82;78.20;100436.83;218583;1287;139376;-87
2023/09/01 17:39:38;;;;;;;9.70;3.40;;;;;;;18.68;78.98;100440.57;218311;1288;142381;-88
2023/09/01 17:44:40;;;;;;;6.50;3.00;;;;;;;18.53;79.74;100437.95;218844;1288;139387;-88
2023/09/01 17:49:40;;;;;;;7.60;2.70;;;;;;;18.41;80.42;100444.40;218318;1288;141572;-87
2023/09/01 17:54:41;;;;;;;5.90;2.60;;;;;;;18.26;80.80;100448.58;218819;1288;139019;-86
2023/09/01 17:59:41;;;;;;;6.00;2.70;;;;;;;18.11;81.46;100446.89;218255;1288;140557;-86
2023/09/01 18:04:42;;;;;;;10.80;3.10;;;;;;;17.97;82.69;100452.66;218789;1286;139460;-86
2023/09/01 18:09:42;;;;;;;7.00;3.50;;;;;;;17.79;83.38;100461.08;218192;1288;140719;-87
2023/09/01 18:14:43;;;;;;;11.30;3.40;;;;;;;17.67;84.16;100467.26;218653;1288;139184;-86
2023/09/01 18:19:44;;;;;;;8.30;3.80;;;;;;;17.55;84.94;100478.67;218034;1287;140876;-87
2023/09/01 18:24:44;;;;;;;7.80;3.50;;;;;;;17.42;85.52;100476.90;218740;1286;139281;-86
2023/09/01 18:29:45;;;;;;;9.10;4.50;;;;;;;17.31;85.99;100475.62;218420;1288;141382;-86
2023/09/01 18:34:45;;;;;;;9.90;4.80;;;;;;;17.20;86.80;100478.81;218813;1286;139258;-86
2023/09/01 18:39:47;;;;;;;11.10;4.20;;;;;;;17.14;87.21;100483.10;217942;1286;141336;-86
2023/09/01 18:44:47;;;;;;;10.30;4.80;;;;;;;17.00;88.20;100479.73;218627;1289;139695;-86
2023/09/01 18:49:51;;;;;;;10.60;5.50;;;;;;;16.90;89.13;100482.35;218145;1287;141342;-85
2023/09/01 18:54:52;;;;;;;12.20;4.30;;;;;;;16.77;89.67;100483.48;218615;1286;139014;-86
2023/09/01 19:00:02;;;;;;;11.10;5.40;;;;;;;16.63;90.45;100489.38;218294;1286;142396;-86
2023/09/01 19:05:26;;;;;;;11.90;5.10;;;;;;;16.54;91.18;100489.72;218554;1288;140222;-86
2023/09/01 19:10:27;;;;;;;11.90;4.70;;;;;;;16.46;91.83;100493.23;218258;1288;141789;-86
2023/09/01 19:15:27;;;;;;;10.80;4.80;;;;;;;16.38;92.10;100491.33;218654;1287;139135;-86
2023/09/01 19:20:31;;;;;;;9.90;5.20;;;;;;;16.31;92.59;100502.11;218142;1288;141091;-85
2023/09/01 19:25:31;;;;;;;10.20;5.50;;;;;;;16.20;92.87;100501.59;218876;1286;140149;-86
2023/09/01 19:30:32;;;;;;;12.00;6.00;;;;;;;16.16;93.11;100504.17;218296;1287;141813;-86
2023/09/01 19:35:32;;;;;;;9.80;4.90;;;;;;;16.08;93.65;100509.88;218833;1288;96769;-86
2023/09/01 19:40:33;;;;;;;11.20;5.70;;;;;;;16.00;94.28;100516.78;218170;1289;142413;-85
2023/09/01 19:45:35;;;;;;;10.90;6.10;;;;;;;15.92;94.73;100519.48;218530;1288;139883;-86
2023/09/01 19:50:35;;;;;;;16.70;6.70;;;;;;;15.87;95.11;100525.39;218191;1286;140818;-87
2023/09/01 19:55:39;;;;;;;11.70;6.60;;;;;;;15.78;95.54;100525.63;218913;1286;139163;-88
2023/09/01 20:00:41;;;;;;;13.10;5.80;;;;;;;15.70;95.93;100533.32;218275;1287;140857;-89
2023/09/01 20:05:42;;;;;;;10.70;6.30;;;;;;;15.62;96.27;100535.43;218759;1288;97868;-88
2023/09/01 20:10:43;;;;;;;16.40;7.30;;;;;;;15.55;96.59;100528.83;218086;1288;142568;-88
2023/09/01 20:15:48;;;;;;;9.60;5.60;;;;;;;15.49;96.96;100533.94;218846;1288;139968;-88
2023/09/01 20:20:48;;;;;;;9.40;5.80;;;;;;;15.39;97.61;100533.94;218303;1288;140451;-90
2023/09/01 20:25:49;;;;;;;12.10;6.20;;;;;;;15.29;97.96;100531.75;218563;1288;139514;-88
2023/09/01 20:30:49;;;;;;;10.70;5.60;;;;;;;15.23;98.56;100537.25;217917;1287;141842;-88
2023/09/01 20:35:50;;;;;;;10.40;5.70;;;;;;;15.14;98.76;100542.30;218537;1289;96430;-88
2023/09/01 20:40:51;;;;;;;10.60;4.90;;;;;;;15.05;98.77;100540.28;218167;1288;140705;-87
2023/09/01 20:45:52;;;;;;;10.60;6.00;;;;;;;15.00;98.67;100537.77;218564;1286;139391;-88
2023/09/01 20:50:52;;;;;;;13.60;6.10;;;;;;;14.98;98.96;100537.32;218256;1288;141543;-89
2023/09/01 20:55:53;;;;;;;11.10;6.20;;;;;;;14.93;99.50;100533.78;218503;1291;139419;-88
2023/09/01 21:00:53;;;;;;;10.70;6.40;;;;;;;14.89;99.64;100534.59;218265;1288;141675;-87
2023/09/01 21:05:54;;;;;;;12.30;5.60;;;;;;;14.88;99.62;100530.56;218821;1286;96184;-88
2023/09/01 21:10:54;;;;;;;9.70;5.70;;;;;;;14.86;99.83;100537.29;218082;1287;140615;-87
2023/09/01 21:15:55;;;;;;;13.40;6.60;;;;;;;14.80;99.96;100542.47;218474;1288;139287;-88
2023/09/01 21:20:55;;;;;;;16.60;7.90;;;;;;;14.77;100.00;100546.05;218220;1288;141402;-88
2023/09/01 21:25:56;;;;;;;12.90;7.20;;;;;;;14.75;100.00;100546.91;218768;1289;139325;-86
2023/09/01 21:30:56;;;;;;;15.10;6.90;;;;;;;14.72;100.00;100543.93;218149;1289;141234;-86
2023/09/01 21:35:57;;;;;;;12.80;7.70;;;;;;;14.69;100.00;100546.79;218628;1286;96136;-86
2023/09/01 21:40:58;;;;;;;14.50;8.70;;;;;;;14.65;100.00;100544.74;217893;1288;140933;-86
2023/09/01 21:45:58;;;;;;;12.90;8.00;;;;;;;14.60;100.00;100544.29;218694;1288;139809;-86
2023/09/01 21:50:59;;;;;;;14.20;7.80;;;;;;;14.57;100.00;100547.94;218249;1290;142439;-86
2023/09/01 21:56:02;;;;;;;14.80;8.30;;;;;;;14.55;100.00;100546.68;218777;1290;140189;-86
2023/09/01 22:01:02;;;;;;;12.30;7.90;;;;;;;14.54;100.00;100553.80;218165;1289;141790;-87
2023/09/01 22:06:03;;;;;;;16.30;10.00;;;;;;;14.54;100.00;100556.81;218824;1290;105716;-85
2023/09/01 22:11:04;;;;;;;16.30;9.60;;;;;;;14.51;100.00;100561.17;218245;1286;142280;-86
2023/09/01 22:16:04;;;;;;;13.70;8.30;;;;;;;14.48;100.00;100560.14;218740;1286;139234;-86
2023/09/01 22:21:05;;;;;;;13.60;8.60;;;;;;;14.48;100.00;100562.45;218053;1286;141342;-86
2023/09/01 22:26:08;;;;;;;15.90;9.10;;;;;;;14.49;100.00;100562.75;218776;1289;139641;-86
2023/09/01 22:31:08;;;;;;;15.20;9.30;;;;;;;14.46;100.00;100563.40;218042;1288;142912;-87
2023/09/01 22:36:09;;;;;;;13.50;8.40;;;;;;;14.43;100.00;100566.89;218953;1286;96301;-86
2023/09/01 22:41:09;;;;;;;17.70;10.70;;;;;;;14.41;100.00;100565.55;218332;1286;141670;-86